sensor_id;sensor_type;location;lat;lon;timestamp;P1;durP1;ratioP1;P2;durP2;ratioP2
4047;SDS011;2038;51.728;6.674;2022-11-20T00:01:18;21.80;;;14.30;;
4047;SDS011;2038;51.728;6.674;2022-11-20T00:03:52;20.63;;;13.33;;
4047;SDS011;2038;51.728;6.674;2022-11-20T00:06:20;20.70;;;13.97;;
4047;SDS011;2038;51.728;6.674;2022-11-20T00:08:49;21.17;;;13.03;;
4047;SDS011;2038;51.728;6.674;2022-11-20T00:11:19;21.77;;;12.93;;
4047;SDS011;2038;51.728;6.674;2022-11-20T00:13:49;19.20;;;13.50;;
4047;SDS011;2038;51.728;6.674;2022-11-20T00:16:19;28.40;;;15.50;;
4047;SDS011;2038;51.728;6.674;2022-11-20T00:18:48;29.20;;;15.43;;
4047;SDS011;2038;51.728;6.674;2022-11-20T00:21:16;21.40;;;13.70;;
4047;SDS011;2038;51.728;6.674;2022-11-20T00:23:46;25.03;;;15.10;;
4047;SDS011;2038;51.728;6.674;2022-11-20T00:26:14;21.53;;;14.60;;
4047;SDS011;2038;51.728;6.674;2022-11-20T00:28:44;22.20;;;14.17;;
4047;SDS011;2038;51.728;6.674;2022-11-20T00:31:19;23.80;;;14.70;;
4047;SDS011;2038;51.728;6.674;2022-11-20T00:33:46;22.73;;;14.37;;
4047;SDS011;2038;51.728;6.674;2022-11-20T00:36:13;21.93;;;15.40;;
4047;SDS011;2038;51.728;6.674;2022-11-20T00:38:43;24.50;;;14.63;;
4047;SDS011;2038;51.728;6.674;2022-11-20T00:41:10;26.07;;;14.90;;
4047;SDS011;2038;51.728;6.674;2022-11-20T00:43:39;20.90;;;12.60;;
4047;SDS011;2038;51.728;6.674;2022-11-20T00:46:08;20.83;;;13.80;;
4047;SDS011;2038;51.728;6.674;2022-11-20T00:48:45;22.73;;;14.37;;
4047;SDS011;2038;51.728;6.674;2022-11-20T00:51:13;22.33;;;12.80;;
4047;SDS011;2038;51.728;6.674;2022-11-20T00:53:45;21.17;;;13.73;;
4047;SDS011;2038;51.728;6.674;2022-11-20T00:56:14;23.57;;;14.33;;
4047;SDS011;2038;51.728;6.674;2022-11-20T00:58:43;19.37;;;13.10;;
4047;SDS011;2038;51.728;6.674;2022-11-20T01:01:13;20.70;;;13.20;;
4047;SDS011;2038;51.728;6.674;2022-11-20T01:03:47;26.50;;;14.67;;
4047;SDS011;2038;51.728;6.674;2022-11-20T01:06:16;19.63;;;13.77;;
4047;SDS011;2038;51.728;6.674;2022-11-20T01:08:53;21.30;;;13.70;;
4047;SDS011;2038;51.728;6.674;2022-11-20T01:11:23;25.80;;;14.87;;
4047;SDS011;2038;51.728;6.674;2022-11-20T01:13:56;22.03;;;13.77;;
4047;SDS011;2038;51.728;6.674;2022-11-20T01:16:25;28.70;;;15.10;;
4047;SDS011;2038;51.728;6.674;2022-11-20T01:19:02;26.40;;;15.83;;
4047;SDS011;2038;51.728;6.674;2022-11-20T01:21:32;22.73;;;14.83;;
4047;SDS011;2038;51.728;6.674;2022-11-20T01:24:02;21.83;;;14.20;;
4047;SDS011;2038;51.728;6.674;2022-11-20T01:26:31;24.53;;;15.20;;
4047;SDS011;2038;51.728;6.674;2022-11-20T01:29:00;24.87;;;15.60;;
4047;SDS011;2038;51.728;6.674;2022-11-20T01:31:30;21.13;;;16.17;;
4047;SDS011;2038;51.728;6.674;2022-11-20T01:34:00;25.80;;;15.90;;
4047;SDS011;2038;51.728;6.674;2022-11-20T01:36:39;26.00;;;15.20;;
4047;SDS011;2038;51.728;6.674;2022-11-20T01:39:11;24.53;;;15.57;;
4047;SDS011;2038;51.728;6.674;2022-11-20T01:41:43;22.97;;;15.70;;
4047;SDS011;2038;51.728;6.674;2022-11-20T01:47:43;28.73;;;15.97;;
4047;SDS011;2038;51.728;6.674;2022-11-20T01:50:24;26.07;;;16.70;;
4047;SDS011;2038;51.728;6.674;2022-11-20T01:53:00;26.40;;;14.90;;
4047;SDS011;2038;51.728;6.674;2022-11-20T01:55:33;23.63;;;13.67;;
4047;SDS011;2038;51.728;6.674;2022-11-20T01:58:06;24.57;;;16.20;;
4047;SDS011;2038;51.728;6.674;2022-11-20T02:00:33;23.50;;;15.80;;
4047;SDS011;2038;51.728;6.674;2022-11-20T02:03:01;28.60;;;16.70;;
4047;SDS011;2038;51.728;6.674;2022-11-20T02:05:43;21.33;;;14.97;;
4047;SDS011;2038;51.728;6.674;2022-11-20T02:08:32;18.73;;;15.13;;
4047;SDS011;2038;51.728;6.674;2022-11-20T02:10:58;22.30;;;15.27;;
4047;SDS011;2038;51.728;6.674;2022-11-20T02:13:25;22.73;;;15.97;;
4047;SDS011;2038;51.728;6.674;2022-11-20T02:16:13;22.80;;;15.03;;
4047;SDS011;2038;51.728;6.674;2022-11-20T02:18:59;26.23;;;16.07;;
4047;SDS011;2038;51.728;6.674;2022-11-20T02:26:53;28.50;;;18.23;;
4047;SDS011;2038;51.728;6.674;2022-11-20T02:29:40;33.37;;;16.70;;
4047;SDS011;2038;51.728;6.674;2022-11-20T02:32:19;28.70;;;16.70;;
4047;SDS011;2038;51.728;6.674;2022-11-20T02:34:46;30.40;;;17.27;;
4047;SDS011;2038;51.728;6.674;2022-11-20T02:37:13;27.90;;;17.17;;
4047;SDS011;2038;51.728;6.674;2022-11-20T02:39:40;25.43;;;17.07;;
4047;SDS011;2038;51.728;6.674;2022-11-20T02:42:10;25.77;;;17.50;;
4047;SDS011;2038;51.728;6.674;2022-11-20T02:44:37;28.67;;;16.67;;
4047;SDS011;2038;51.728;6.674;2022-11-20T02:47:03;28.07;;;18.23;;
4047;SDS011;2038;51.728;6.674;2022-11-20T02:49:29;28.73;;;18.13;;
4047;SDS011;2038;51.728;6.674;2022-11-20T02:51:55;28.00;;;17.90;;
4047;SDS011;2038;51.728;6.674;2022-11-20T02:54:22;23.87;;;14.93;;
4047;SDS011;2038;51.728;6.674;2022-11-20T02:56:48;27.93;;;17.77;;
4047;SDS011;2038;51.728;6.674;2022-11-20T02:59:15;24.73;;;15.60;;
4047;SDS011;2038;51.728;6.674;2022-11-20T03:01:41;29.70;;;17.70;;
4047;SDS011;2038;51.728;6.674;2022-11-20T03:04:07;20.13;;;14.00;;
4047;SDS011;2038;51.728;6.674;2022-11-20T03:06:33;21.93;;;15.77;;
4047;SDS011;2038;51.728;6.674;2022-11-20T03:08:59;23.37;;;14.97;;
4047;SDS011;2038;51.728;6.674;2022-11-20T03:11:26;25.83;;;15.23;;
4047;SDS011;2038;51.728;6.674;2022-11-20T03:13:53;28.00;;;16.57;;
4047;SDS011;2038;51.728;6.674;2022-11-20T03:16:20;27.20;;;17.33;;
4047;SDS011;2038;51.728;6.674;2022-11-20T03:18:47;25.63;;;16.70;;
4047;SDS011;2038;51.728;6.674;2022-11-20T03:21:16;24.67;;;17.80;;
4047;SDS011;2038;51.728;6.674;2022-11-20T03:23:43;27.60;;;15.87;;
4047;SDS011;2038;51.728;6.674;2022-11-20T03:26:19;27.70;;;17.87;;
4047;SDS011;2038;51.728;6.674;2022-11-20T03:28:50;26.20;;;16.57;;
4047;SDS011;2038;51.728;6.674;2022-11-20T03:31:29;28.87;;;17.63;;
4047;SDS011;2038;51.728;6.674;2022-11-20T03:34:00;32.67;;;17.20;;
4047;SDS011;2038;51.728;6.674;2022-11-20T03:36:28;26.23;;;17.70;;
4047;SDS011;2038;51.728;6.674;2022-11-20T03:38:55;33.17;;;18.60;;
4047;SDS011;2038;51.728;6.674;2022-11-20T03:41:23;29.00;;;17.10;;
4047;SDS011;2038;51.728;6.674;2022-11-20T03:43:57;24.53;;;17.10;;
4047;SDS011;2038;51.728;6.674;2022-11-20T03:46:25;25.17;;;15.17;;
4047;SDS011;2038;51.728;6.674;2022-11-20T03:48:53;26.80;;;15.10;;
4047;SDS011;2038;51.728;6.674;2022-11-20T03:51:22;26.47;;;16.33;;
4047;SDS011;2038;51.728;6.674;2022-11-20T03:53:51;30.93;;;16.43;;
4047;SDS011;2038;51.728;6.674;2022-11-20T03:56:22;28.10;;;15.83;;
4047;SDS011;2038;51.728;6.674;2022-11-20T03:58:51;22.63;;;15.60;;
4047;SDS011;2038;51.728;6.674;2022-11-20T04:01:22;29.83;;;17.13;;
4047;SDS011;2038;51.728;6.674;2022-11-20T04:03:52;29.53;;;16.73;;
4047;SDS011;2038;51.728;6.674;2022-11-20T04:06:21;25.20;;;17.07;;
4047;SDS011;2038;51.728;6.674;2022-11-20T04:08:58;30.70;;;18.53;;
4047;SDS011;2038;51.728;6.674;2022-11-20T04:11:28;25.83;;;18.27;;
4047;SDS011;2038;51.728;6.674;2022-11-20T04:13:58;27.17;;;15.47;;
4047;SDS011;2038;51.728;6.674;2022-11-20T04:16:29;27.93;;;17.37;;
4047;SDS011;2038;51.728;6.674;2022-11-20T04:18:59;25.03;;;17.40;;
4047;SDS011;2038;51.728;6.674;2022-11-20T04:21:29;28.07;;;16.93;;
4047;SDS011;2038;51.728;6.674;2022-11-20T04:23:56;30.03;;;17.57;;
4047;SDS011;2038;51.728;6.674;2022-11-20T04:26:24;27.47;;;16.83;;
4047;SDS011;2038;51.728;6.674;2022-11-20T04:28:53;26.90;;;17.60;;
4047;SDS011;2038;51.728;6.674;2022-11-20T04:31:21;28.53;;;17.47;;
4047;SDS011;2038;51.728;6.674;2022-11-20T04:34:00;28.33;;;17.93;;
4047;SDS011;2038;51.728;6.674;2022-11-20T04:36:31;31.23;;;16.90;;
4047;SDS011;2038;51.728;6.674;2022-11-20T04:38:59;27.63;;;17.60;;
4047;SDS011;2038;51.728;6.674;2022-11-20T04:41:31;28.47;;;18.87;;
4047;SDS011;2038;51.728;6.674;2022-11-20T04:44:01;24.40;;;17.70;;
4047;SDS011;2038;51.728;6.674;2022-11-20T04:46:31;26.80;;;16.50;;
4047;SDS011;2038;51.728;6.674;2022-11-20T04:49:10;28.00;;;16.43;;
4047;SDS011;2038;51.728;6.674;2022-11-20T04:51:36;26.13;;;15.83;;
4047;SDS011;2038;51.728;6.674;2022-11-20T04:54:03;27.00;;;16.27;;
4047;SDS011;2038;51.728;6.674;2022-11-20T04:56:29;22.57;;;15.10;;
4047;SDS011;2038;51.728;6.674;2022-11-20T04:58:55;25.93;;;18.10;;
4047;SDS011;2038;51.728;6.674;2022-11-20T05:01:25;20.40;;;14.07;;
4047;SDS011;2038;51.728;6.674;2022-11-20T05:03:51;28.00;;;17.23;;
4047;SDS011;2038;51.728;6.674;2022-11-20T05:06:18;26.80;;;18.97;;
4047;SDS011;2038;51.728;6.674;2022-11-20T05:08:47;26.10;;;17.03;;
4047;SDS011;2038;51.728;6.674;2022-11-20T05:11:15;25.53;;;15.53;;
4047;SDS011;2038;51.728;6.674;2022-11-20T05:13:45;31.50;;;16.57;;
4047;SDS011;2038;51.728;6.674;2022-11-20T05:16:13;22.90;;;16.10;;
4047;SDS011;2038;51.728;6.674;2022-11-20T05:18:45;29.87;;;18.20;;
4047;SDS011;2038;51.728;6.674;2022-11-20T05:21:12;23.77;;;14.70;;
4047;SDS011;2038;51.728;6.674;2022-11-20T05:23:39;30.77;;;17.97;;
4047;SDS011;2038;51.728;6.674;2022-11-20T05:26:07;27.10;;;17.03;;
4047;SDS011;2038;51.728;6.674;2022-11-20T05:28:46;30.73;;;18.60;;
4047;SDS011;2038;51.728;6.674;2022-11-20T05:31:14;25.20;;;15.67;;
4047;SDS011;2038;51.728;6.674;2022-11-20T05:33:46;26.20;;;16.33;;
4047;SDS011;2038;51.728;6.674;2022-11-20T05:36:13;24.40;;;15.33;;
4047;SDS011;2038;51.728;6.674;2022-11-20T05:38:41;26.80;;;16.30;;
4047;SDS011;2038;51.728;6.674;2022-11-20T05:41:09;31.37;;;16.63;;
4047;SDS011;2038;51.728;6.674;2022-11-20T05:43:43;23.50;;;16.07;;
4047;SDS011;2038;51.728;6.674;2022-11-20T05:46:12;30.00;;;15.87;;
4047;SDS011;2038;51.728;6.674;2022-11-20T05:48:41;27.37;;;17.17;;
4047;SDS011;2038;51.728;6.674;2022-11-20T05:51:09;23.67;;;17.10;;
4047;SDS011;2038;51.728;6.674;2022-11-20T05:53:39;29.63;;;17.30;;
4047;SDS011;2038;51.728;6.674;2022-11-20T05:56:06;25.40;;;17.00;;
4047;SDS011;2038;51.728;6.674;2022-11-20T05:58:40;26.10;;;15.27;;
4047;SDS011;2038;51.728;6.674;2022-11-20T06:01:07;28.03;;;17.80;;
4047;SDS011;2038;51.728;6.674;2022-11-20T06:03:38;24.20;;;17.10;;
4047;SDS011;2038;51.728;6.674;2022-11-20T06:06:07;23.17;;;15.73;;
4047;SDS011;2038;51.728;6.674;2022-11-20T06:08:34;36.33;;;18.00;;
4047;SDS011;2038;51.728;6.674;2022-11-20T06:11:04;25.27;;;17.83;;
4047;SDS011;2038;51.728;6.674;2022-11-20T06:13:33;29.00;;;16.90;;
4047;SDS011;2038;51.728;6.674;2022-11-20T06:16:00;26.57;;;15.90;;
4047;SDS011;2038;51.728;6.674;2022-11-20T06:18:27;29.43;;;17.70;;
4047;SDS011;2038;51.728;6.674;2022-11-20T06:21:10;35.97;;;19.90;;
4047;SDS011;2038;51.728;6.674;2022-11-20T06:23:41;28.77;;;16.27;;
4047;SDS011;2038;51.728;6.674;2022-11-20T06:26:09;29.87;;;18.97;;
4047;SDS011;2038;51.728;6.674;2022-11-20T06:28:38;31.30;;;18.17;;
4047;SDS011;2038;51.728;6.674;2022-11-20T06:31:05;30.83;;;20.10;;
4047;SDS011;2038;51.728;6.674;2022-11-20T06:33:34;29.20;;;17.57;;
4047;SDS011;2038;51.728;6.674;2022-11-20T06:36:02;32.13;;;19.10;;
4047;SDS011;2038;51.728;6.674;2022-11-20T06:38:29;30.03;;;17.90;;
4047;SDS011;2038;51.728;6.674;2022-11-20T06:40:55;31.73;;;18.97;;
4047;SDS011;2038;51.728;6.674;2022-11-20T06:43:22;28.87;;;18.30;;
4047;SDS011;2038;51.728;6.674;2022-11-20T06:45:53;26.57;;;17.90;;
4047;SDS011;2038;51.728;6.674;2022-11-20T06:48:22;24.53;;;15.90;;
4047;SDS011;2038;51.728;6.674;2022-11-20T06:50:50;29.80;;;19.63;;
4047;SDS011;2038;51.728;6.674;2022-11-20T06:53:16;29.93;;;18.73;;
4047;SDS011;2038;51.728;6.674;2022-11-20T06:55:43;23.80;;;16.57;;
4047;SDS011;2038;51.728;6.674;2022-11-20T06:58:12;28.93;;;18.23;;
4047;SDS011;2038;51.728;6.674;2022-11-20T07:00:40;30.13;;;16.50;;
4047;SDS011;2038;51.728;6.674;2022-11-20T07:03:07;21.47;;;15.90;;
4047;SDS011;2038;51.728;6.674;2022-11-20T07:05:35;29.73;;;17.70;;
4047;SDS011;2038;51.728;6.674;2022-11-20T07:08:02;30.30;;;17.33;;
4047;SDS011;2038;51.728;6.674;2022-11-20T07:10:30;28.03;;;17.73;;
4047;SDS011;2038;51.728;6.674;2022-11-20T07:12:57;29.70;;;17.80;;
4047;SDS011;2038;51.728;6.674;2022-11-20T07:15:24;29.63;;;17.67;;
4047;SDS011;2038;51.728;6.674;2022-11-20T07:17:51;23.83;;;16.43;;
4047;SDS011;2038;51.728;6.674;2022-11-20T07:20:18;31.30;;;19.20;;
4047;SDS011;2038;51.728;6.674;2022-11-20T07:22:44;31.17;;;17.10;;
4047;SDS011;2038;51.728;6.674;2022-11-20T07:25:10;25.07;;;16.73;;
4047;SDS011;2038;51.728;6.674;2022-11-20T07:27:36;26.17;;;16.60;;
4047;SDS011;2038;51.728;6.674;2022-11-20T07:30:03;26.43;;;17.47;;
4047;SDS011;2038;51.728;6.674;2022-11-20T07:32:30;27.57;;;17.23;;
4047;SDS011;2038;51.728;6.674;2022-11-20T07:34:56;34.40;;;19.73;;
4047;SDS011;2038;51.728;6.674;2022-11-20T07:37:22;29.37;;;17.83;;
4047;SDS011;2038;51.728;6.674;2022-11-20T07:39:48;26.77;;;18.17;;
4047;SDS011;2038;51.728;6.674;2022-11-20T07:42:15;29.20;;;19.03;;
4047;SDS011;2038;51.728;6.674;2022-11-20T07:44:41;25.27;;;15.87;;
4047;SDS011;2038;51.728;6.674;2022-11-20T07:47:07;29.63;;;18.40;;
4047;SDS011;2038;51.728;6.674;2022-11-20T07:49:33;26.00;;;17.60;;
4047;SDS011;2038;51.728;6.674;2022-11-20T07:52:00;32.27;;;17.67;;
4047;SDS011;2038;51.728;6.674;2022-11-20T07:54:26;26.87;;;17.47;;
4047;SDS011;2038;51.728;6.674;2022-11-20T07:56:52;37.33;;;18.80;;
4047;SDS011;2038;51.728;6.674;2022-11-20T07:59:19;30.40;;;19.30;;
4047;SDS011;2038;51.728;6.674;2022-11-20T08:01:46;28.30;;;17.20;;
4047;SDS011;2038;51.728;6.674;2022-11-20T08:04:12;30.33;;;17.70;;
4047;SDS011;2038;51.728;6.674;2022-11-20T08:06:40;29.30;;;17.70;;
4047;SDS011;2038;51.728;6.674;2022-11-20T08:09:06;31.67;;;18.50;;
4047;SDS011;2038;51.728;6.674;2022-11-20T08:11:33;31.00;;;18.00;;
4047;SDS011;2038;51.728;6.674;2022-11-20T08:14:17;28.57;;;17.70;;
4047;SDS011;2038;51.728;6.674;2022-11-20T08:16:47;31.13;;;18.70;;
4047;SDS011;2038;51.728;6.674;2022-11-20T08:19:14;36.00;;;19.17;;
4047;SDS011;2038;51.728;6.674;2022-11-20T08:21:43;30.67;;;20.17;;
4047;SDS011;2038;51.728;6.674;2022-11-20T08:24:10;33.10;;;17.97;;
4047;SDS011;2038;51.728;6.674;2022-11-20T08:26:37;31.93;;;21.37;;
4047;SDS011;2038;51.728;6.674;2022-11-20T08:29:05;35.93;;;20.57;;
4047;SDS011;2038;51.728;6.674;2022-11-20T08:31:32;31.00;;;20.30;;
4047;SDS011;2038;51.728;6.674;2022-11-20T08:33:58;31.67;;;20.30;;
4047;SDS011;2038;51.728;6.674;2022-11-20T08:36:24;29.00;;;19.50;;
4047;SDS011;2038;51.728;6.674;2022-11-20T08:38:52;32.03;;;21.20;;
4047;SDS011;2038;51.728;6.674;2022-11-20T08:41:20;28.40;;;18.60;;
4047;SDS011;2038;51.728;6.674;2022-11-20T08:43:52;30.13;;;19.07;;
4047;SDS011;2038;51.728;6.674;2022-11-20T08:46:22;30.20;;;18.83;;
4047;SDS011;2038;51.728;6.674;2022-11-20T08:48:52;30.30;;;19.63;;
4047;SDS011;2038;51.728;6.674;2022-11-20T08:51:19;34.33;;;23.00;;
4047;SDS011;2038;51.728;6.674;2022-11-20T08:53:46;37.47;;;24.13;;
4047;SDS011;2038;51.728;6.674;2022-11-20T08:56:13;38.93;;;23.80;;
4047;SDS011;2038;51.728;6.674;2022-11-20T08:58:40;40.17;;;23.43;;
4047;SDS011;2038;51.728;6.674;2022-11-20T09:01:07;36.27;;;23.80;;
4047;SDS011;2038;51.728;6.674;2022-11-20T09:03:33;45.40;;;27.27;;
4047;SDS011;2038;51.728;6.674;2022-11-20T09:06:00;50.97;;;29.20;;
4047;SDS011;2038;51.728;6.674;2022-11-20T09:08:29;47.90;;;29.00;;
4047;SDS011;2038;51.728;6.674;2022-11-20T09:10:57;42.47;;;26.23;;
4047;SDS011;2038;51.728;6.674;2022-11-20T09:13:24;33.13;;;21.80;;
4047;SDS011;2038;51.728;6.674;2022-11-20T09:15:53;50.30;;;26.70;;
4047;SDS011;2038;51.728;6.674;2022-11-20T09:18:25;45.90;;;27.40;;
4047;SDS011;2038;51.728;6.674;2022-11-20T09:20:56;44.40;;;25.83;;
4047;SDS011;2038;51.728;6.674;2022-11-20T09:23:31;45.80;;;27.93;;
4047;SDS011;2038;51.728;6.674;2022-11-20T09:26:09;48.30;;;27.33;;
4047;SDS011;2038;51.728;6.674;2022-11-20T09:28:38;56.70;;;30.37;;
4047;SDS011;2038;51.728;6.674;2022-11-20T09:31:06;67.93;;;36.97;;
4047;SDS011;2038;51.728;6.674;2022-11-20T09:33:35;51.87;;;27.90;;
4047;SDS011;2038;51.728;6.674;2022-11-20T09:36:01;44.03;;;26.37;;
4047;SDS011;2038;51.728;6.674;2022-11-20T09:38:27;42.77;;;25.10;;
4047;SDS011;2038;51.728;6.674;2022-11-20T09:40:58;39.43;;;24.60;;
4047;SDS011;2038;51.728;6.674;2022-11-20T09:51:45;47.03;;;23.80;;
4047;SDS011;2038;51.728;6.674;2022-11-20T09:54:39;40.13;;;26.13;;
4047;SDS011;2038;51.728;6.674;2022-11-20T09:57:10;48.10;;;27.30;;
4047;SDS011;2038;51.728;6.674;2022-11-20T09:59:51;47.03;;;28.47;;
4047;SDS011;2038;51.728;6.674;2022-11-20T10:02:28;51.10;;;30.50;;
4047;SDS011;2038;51.728;6.674;2022-11-20T10:05:21;50.30;;;29.03;;
4047;SDS011;2038;51.728;6.674;2022-11-20T10:08:19;49.17;;;29.17;;
4047;SDS011;2038;51.728;6.674;2022-11-20T10:11:04;56.77;;;33.80;;
4047;SDS011;2038;51.728;6.674;2022-11-20T10:14:02;49.23;;;30.10;;
4047;SDS011;2038;51.728;6.674;2022-11-20T10:19:34;52.50;;;33.50;;
4047;SDS011;2038;51.728;6.674;2022-11-20T10:26:39;48.30;;;30.47;;
4047;SDS011;2038;51.728;6.674;2022-11-20T10:32:02;52.57;;;30.23;;
4047;SDS011;2038;51.728;6.674;2022-11-20T10:37:46;43.10;;;27.10;;
4047;SDS011;2038;51.728;6.674;2022-11-20T10:40:20;42.20;;;25.20;;
4047;SDS011;2038;51.728;6.674;2022-11-20T10:42:55;53.40;;;28.03;;
4047;SDS011;2038;51.728;6.674;2022-11-20T10:48:26;55.20;;;29.57;;
4047;SDS011;2038;51.728;6.674;2022-11-20T10:51:01;60.70;;;35.00;;
4047;SDS011;2038;51.728;6.674;2022-11-20T10:54:03;56.13;;;32.87;;
4047;SDS011;2038;51.728;6.674;2022-11-20T10:56:48;52.80;;;31.00;;
4047;SDS011;2038;51.728;6.674;2022-11-20T11:02:18;46.83;;;28.60;;
4047;SDS011;2038;51.728;6.674;2022-11-20T11:04:56;43.03;;;27.13;;
4047;SDS011;2038;51.728;6.674;2022-11-20T11:07:35;39.73;;;25.50;;
4047;SDS011;2038;51.728;6.674;2022-11-20T11:10:15;41.37;;;24.23;;
4047;SDS011;2038;51.728;6.674;2022-11-20T11:12:44;43.40;;;27.80;;
4047;SDS011;2038;51.728;6.674;2022-11-20T11:18:22;46.33;;;29.00;;
4047;SDS011;2038;51.728;6.674;2022-11-20T11:20:59;42.83;;;25.57;;
4047;SDS011;2038;51.728;6.674;2022-11-20T11:26:18;36.67;;;22.43;;
4047;SDS011;2038;51.728;6.674;2022-11-20T11:28:56;40.13;;;24.27;;
4047;SDS011;2038;51.728;6.674;2022-11-20T11:36:55;41.70;;;24.70;;
4047;SDS011;2038;51.728;6.674;2022-11-20T11:39:23;41.43;;;24.80;;
4047;SDS011;2038;51.728;6.674;2022-11-20T11:41:53;36.30;;;23.83;;
4047;SDS011;2038;51.728;6.674;2022-11-20T11:44:20;38.30;;;22.40;;
4047;SDS011;2038;51.728;6.674;2022-11-20T11:50:28;36.30;;;23.93;;
4047;SDS011;2038;51.728;6.674;2022-11-20T11:55:42;39.27;;;26.70;;
4047;SDS011;2038;51.728;6.674;2022-11-20T11:58:47;53.67;;;31.43;;
4047;SDS011;2038;51.728;6.674;2022-11-20T12:01:36;42.50;;;26.73;;
4047;SDS011;2038;51.728;6.674;2022-11-20T12:07:20;42.90;;;25.83;;
4047;SDS011;2038;51.728;6.674;2022-11-20T12:10:13;39.40;;;25.90;;
4047;SDS011;2038;51.728;6.674;2022-11-20T12:13:04;37.40;;;23.63;;
4047;SDS011;2038;51.728;6.674;2022-11-20T12:15:39;34.60;;;22.00;;
4047;SDS011;2038;51.728;6.674;2022-11-20T12:18:14;43.97;;;27.13;;
4047;SDS011;2038;51.728;6.674;2022-11-20T12:20:46;39.77;;;25.97;;
4047;SDS011;2038;51.728;6.674;2022-11-20T12:23:45;45.23;;;25.77;;
4047;SDS011;2038;51.728;6.674;2022-11-20T12:26:58;45.57;;;24.00;;
4047;SDS011;2038;51.728;6.674;2022-11-20T12:29:51;40.90;;;25.27;;
4047;SDS011;2038;51.728;6.674;2022-11-20T12:35:32;42.93;;;26.10;;
4047;SDS011;2038;51.728;6.674;2022-11-20T12:57:01;41.60;;;26.90;;
4047;SDS011;2038;51.728;6.674;2022-11-20T13:02:22;45.37;;;27.40;;
4047;SDS011;2038;51.728;6.674;2022-11-20T13:05:11;48.10;;;29.60;;
4047;SDS011;2038;51.728;6.674;2022-11-20T13:08:01;45.00;;;26.90;;
4047;SDS011;2038;51.728;6.674;2022-11-20T13:10:43;50.83;;;27.80;;
4047;SDS011;2038;51.728;6.674;2022-11-20T13:13:23;45.37;;;26.40;;
4047;SDS011;2038;51.728;6.674;2022-11-20T13:16:32;41.67;;;25.53;;
4047;SDS011;2038;51.728;6.674;2022-11-20T13:19:25;47.60;;;27.20;;
4047;SDS011;2038;51.728;6.674;2022-11-20T13:21:53;40.57;;;25.70;;
4047;SDS011;2038;51.728;6.674;2022-11-20T13:24:21;45.27;;;27.57;;
4047;SDS011;2038;51.728;6.674;2022-11-20T13:29:36;55.83;;;27.70;;
4047;SDS011;2038;51.728;6.674;2022-11-20T13:32:16;38.60;;;27.30;;
4047;SDS011;2038;51.728;6.674;2022-11-20T13:34:55;39.80;;;25.43;;
4047;SDS011;2038;51.728;6.674;2022-11-20T13:37:35;47.03;;;27.90;;
4047;SDS011;2038;51.728;6.674;2022-11-20T13:42:38;64.20;;;29.90;;
4047;SDS011;2038;51.728;6.674;2022-11-20T13:45:30;44.13;;;27.43;;
4047;SDS011;2038;51.728;6.674;2022-11-20T13:47:59;49.60;;;28.90;;
4047;SDS011;2038;51.728;6.674;2022-11-20T13:50:59;52.27;;;28.50;;
4047;SDS011;2038;51.728;6.674;2022-11-20T13:56:40;60.50;;;33.33;;
4047;SDS011;2038;51.728;6.674;2022-11-20T14:02:22;48.37;;;29.30;;
4047;SDS011;2038;51.728;6.674;2022-11-20T14:04:53;46.77;;;29.10;;
4047;SDS011;2038;51.728;6.674;2022-11-20T14:07:25;52.70;;;31.20;;
4047;SDS011;2038;51.728;6.674;2022-11-20T14:10:03;53.13;;;29.97;;
4047;SDS011;2038;51.728;6.674;2022-11-20T14:12:31;51.80;;;32.97;;
4047;SDS011;2038;51.728;6.674;2022-11-20T14:14:59;51.00;;;31.10;;
4047;SDS011;2038;51.728;6.674;2022-11-20T14:17:30;55.50;;;30.20;;
4047;SDS011;2038;51.728;6.674;2022-11-20T14:20:01;55.73;;;29.13;;
4047;SDS011;2038;51.728;6.674;2022-11-20T14:22:31;53.03;;;29.03;;
4047;SDS011;2038;51.728;6.674;2022-11-20T14:25:03;56.97;;;32.67;;
4047;SDS011;2038;51.728;6.674;2022-11-20T14:27:39;57.40;;;34.07;;
4047;SDS011;2038;51.728;6.674;2022-11-20T14:30:15;58.07;;;34.17;;
4047;SDS011;2038;51.728;6.674;2022-11-20T14:32:45;61.13;;;34.77;;
4047;SDS011;2038;51.728;6.674;2022-11-20T14:35:14;62.50;;;34.57;;
4047;SDS011;2038;51.728;6.674;2022-11-20T14:37:48;56.00;;;34.80;;
4047;SDS011;2038;51.728;6.674;2022-11-20T14:40:21;55.07;;;33.17;;
4047;SDS011;2038;51.728;6.674;2022-11-20T14:42:52;56.40;;;31.43;;
4047;SDS011;2038;51.728;6.674;2022-11-20T14:45:18;58.93;;;33.80;;
4047;SDS011;2038;51.728;6.674;2022-11-20T14:47:46;54.53;;;30.63;;
4047;SDS011;2038;51.728;6.674;2022-11-20T14:50:22;61.33;;;33.07;;
4047;SDS011;2038;51.728;6.674;2022-11-20T14:52:55;64.77;;;36.90;;
4047;SDS011;2038;51.728;6.674;2022-11-20T14:55:33;68.20;;;38.80;;
4047;SDS011;2038;51.728;6.674;2022-11-20T14:58:03;56.20;;;33.50;;
4047;SDS011;2038;51.728;6.674;2022-11-20T15:00:55;50.40;;;32.00;;
4047;SDS011;2038;51.728;6.674;2022-11-20T15:03:31;57.37;;;33.10;;
4047;SDS011;2038;51.728;6.674;2022-11-20T15:06:03;53.90;;;29.47;;
4047;SDS011;2038;51.728;6.674;2022-11-20T15:08:33;54.37;;;29.50;;
4047;SDS011;2038;51.728;6.674;2022-11-20T15:11:16;47.40;;;29.73;;
4047;SDS011;2038;51.728;6.674;2022-11-20T15:13:54;58.57;;;33.47;;
4047;SDS011;2038;51.728;6.674;2022-11-20T15:16:23;56.20;;;32.60;;
4047;SDS011;2038;51.728;6.674;2022-11-20T15:18:53;51.77;;;31.10;;
4047;SDS011;2038;51.728;6.674;2022-11-20T15:21:20;57.80;;;31.07;;
4047;SDS011;2038;51.728;6.674;2022-11-20T15:23:47;62.67;;;33.07;;
4047;SDS011;2038;51.728;6.674;2022-11-20T15:26:14;56.17;;;33.10;;
4047;SDS011;2038;51.728;6.674;2022-11-20T15:28:50;58.40;;;33.07;;
4047;SDS011;2038;51.728;6.674;2022-11-20T15:31:18;51.60;;;30.20;;
4047;SDS011;2038;51.728;6.674;2022-11-20T15:33:49;56.00;;;31.47;;
4047;SDS011;2038;51.728;6.674;2022-11-20T15:36:16;56.60;;;32.30;;
4047;SDS011;2038;51.728;6.674;2022-11-20T15:38:42;55.93;;;31.27;;
4047;SDS011;2038;51.728;6.674;2022-11-20T15:41:08;53.47;;;29.67;;
4047;SDS011;2038;51.728;6.674;2022-11-20T15:43:35;57.23;;;30.77;;
4047;SDS011;2038;51.728;6.674;2022-11-20T15:46:02;59.10;;;32.17;;
4047;SDS011;2038;51.728;6.674;2022-11-20T15:48:42;62.87;;;34.40;;
4047;SDS011;2038;51.728;6.674;2022-11-20T15:51:32;52.90;;;28.97;;
4047;SDS011;2038;51.728;6.674;2022-11-20T15:54:10;55.43;;;28.93;;
4047;SDS011;2038;51.728;6.674;2022-11-20T15:56:38;52.10;;;28.77;;
4047;SDS011;2038;51.728;6.674;2022-11-20T15:59:04;52.67;;;28.33;;
4047;SDS011;2038;51.728;6.674;2022-11-20T16:01:30;54.40;;;28.67;;
4047;SDS011;2038;51.728;6.674;2022-11-20T16:03:56;56.80;;;29.30;;
4047;SDS011;2038;51.728;6.674;2022-11-20T16:06:24;50.27;;;30.90;;
4047;SDS011;2038;51.728;6.674;2022-11-20T16:08:50;59.40;;;31.13;;
4047;SDS011;2038;51.728;6.674;2022-11-20T16:11:17;60.67;;;31.50;;
4047;SDS011;2038;51.728;6.674;2022-11-20T16:13:43;49.57;;;28.57;;
4047;SDS011;2038;51.728;6.674;2022-11-20T16:16:29;56.57;;;30.43;;
4047;SDS011;2038;51.728;6.674;2022-11-20T16:19:01;58.67;;;32.00;;
4047;SDS011;2038;51.728;6.674;2022-11-20T16:21:28;56.73;;;29.40;;
4047;SDS011;2038;51.728;6.674;2022-11-20T16:23:59;58.73;;;30.50;;
4047;SDS011;2038;51.728;6.674;2022-11-20T16:26:29;49.77;;;27.17;;
4047;SDS011;2038;51.728;6.674;2022-11-20T16:28:58;49.90;;;28.63;;
4047;SDS011;2038;51.728;6.674;2022-11-20T16:31:25;56.03;;;30.77;;
4047;SDS011;2038;51.728;6.674;2022-11-20T16:33:52;53.90;;;30.37;;
4047;SDS011;2038;51.728;6.674;2022-11-20T16:36:24;48.50;;;27.50;;
4047;SDS011;2038;51.728;6.674;2022-11-20T16:39:00;57.60;;;32.37;;
4047;SDS011;2038;51.728;6.674;2022-11-20T16:41:29;51.03;;;31.10;;
4047;SDS011;2038;51.728;6.674;2022-11-20T16:43:59;56.00;;;32.80;;
4047;SDS011;2038;51.728;6.674;2022-11-20T16:46:31;51.80;;;30.60;;
4047;SDS011;2038;51.728;6.674;2022-11-20T16:49:05;56.00;;;31.60;;